Terminal Aerodrome Forecast
Issued by NWS

Current Version | Previous Version | Text Only | Print | Product List | Glossary On
Versions: 1 2 3 4 5 6 7 8 9 10 11 12
000
FTUS44 KOUN 191740
TAFGAG
TAF
KGAG 191740Z 1918/2018 18013G22KT P6SM BKN250
     FM200500 16020G28KT P6SM BKN100
     FM201500 19022G33KT P6SM BKN025=

USA.gov is the U.S. government's official web portal to all federal, state and local government web resources and services.